Time;durP1;ratioP1;P1;durP2;ratioP2;P2;SDS_P1;SDS_P2;PMS_P1;PMS_P2;Temp;Humidity;BMP_temperature;BMP_pressure;BME280_temperature;BME280_humidity;BME280_pressure;Samples;Min_cycle;Max_cycle;Signal;HPM_P1;HPM_P2
2023/12/31 00:00:09;;;;;;;11.18;3.95;;;;;;;4.27;100.00;100835.22;5046257;28;20514;-75
2023/12/31 00:02:36;;;;;;;9.10;4.30;;;;;;;4.25;100.00;100831.97;4988997;28;20156;-72
2023/12/31 00:05:01;;;;;;;;;;;;;;;4.21;100.00;100822.84;4991784;28;20045;-72
2023/12/31 00:07:27;;;;;;;9.55;3.75;;;;;;;4.17;100.00;100825.13;5021586;28;19917;-73
2023/12/31 00:09:53;;;;;;;9.48;4.05;;;;;;;4.14;100.00;100820.28;5028592;28;20039;-73
2023/12/31 00:12:18;;;;;;;17.40;4.47;;;;;;;4.13;100.00;100807.25;5021311;28;20041;-73
2023/12/31 00:14:45;;;;;;;12.63;5.00;;;;;;;4.13;100.00;100801.94;5043236;28;20079;-72
2023/12/31 00:17:11;;;;;;;9.18;4.00;;;;;;;4.09;100.00;100802.41;5015978;28;20037;-72
2023/12/31 00:19:37;;;;;;;10.13;5.00;;;;;;;4.08;100.00;100814.03;5040164;28;20041;-73
2023/12/31 00:22:03;;;;;;;12.32;4.88;;;;;;;4.06;100.00;100807.34;5027202;28;20094;-73
2023/12/31 00:24:28;;;;;;;10.43;4.40;;;;;;;4.08;100.00;100805.28;5020709;28;20092;-72
2023/12/31 00:26:54;;;;;;;9.18;4.18;;;;;;;4.04;100.00;100810.22;5039451;28;20048;-72
2023/12/31 00:29:20;;;;;;;12.07;4.15;;;;;;;4.02;100.00;100799.03;5035616;28;20028;-72
2023/12/31 00:31:46;;;;;;;10.05;4.50;;;;;;;4.02;100.00;100807.00;4996993;28;20544;-73
2023/12/31 00:34:11;;;;;;;11.00;3.97;;;;;;;4.00;100.00;100801.13;5005793;28;20037;-72
2023/12/31 00:36:39;;;;;;;8.95;4.45;;;;;;;3.99;100.00;100802.13;5035955;28;20076;-72
2023/12/31 00:39:05;;;;;;;10.95;3.97;;;;;;;3.98;100.00;100805.00;5045710;28;20064;-72
2023/12/31 00:41:31;;;;;;;7.78;3.45;;;;;;;3.98;100.00;100802.34;5026936;28;20482;-72
2023/12/31 00:43:57;;;;;;;13.60;4.32;;;;;;;3.97;100.00;100798.91;5039040;28;20060;-71
2023/12/31 00:46:23;;;;;;;8.45;3.53;;;;;;;3.96;100.00;100791.19;4983583;28;20080;-71
2023/12/31 00:48:48;;;;;;;9.02;4.45;;;;;;;3.96;100.00;100797.28;5015735;28;20045;-71
2023/12/31 00:51:14;;;;;;;9.00;4.32;;;;;;;3.99;100.00;100788.88;5005551;28;20033;-72
2023/12/31 00:53:41;;;;;;;8.20;4.15;;;;;;;4.01;100.00;100788.66;5006090;28;20034;-72
2023/12/31 00:56:08;;;;;;;9.85;4.22;;;;;;;4.04;100.00;100788.22;5040513;28;20037;-72
2023/12/31 00:58:34;;;;;;;10.18;4.30;;;;;;;4.06;100.00;100786.13;5010016;28;20072;-72
2023/12/31 01:01:00;;;;;;;10.73;3.83;;;;;;;4.09;100.00;100783.84;5015359;28;20029;-72
2023/12/31 01:03:26;;;;;;;9.50;4.22;;;;;;;4.11;100.00;100779.13;5035243;28;20044;-73
2023/12/31 01:05:52;;;;;;;12.02;4.45;;;;;;;4.10;100.00;100774.06;5021602;28;20088;-72
2023/12/31 01:08:17;;;;;;;9.57;3.83;;;;;;;4.13;100.00;100791.34;5035138;28;20032;-73
2023/12/31 01:10:43;;;;;;;12.48;4.20;;;;;;;4.10;100.00;100776.72;5030596;28;20104;-72
2023/12/31 01:13:09;;;;;;;11.93;4.05;;;;;;;4.10;100.00;100769.56;5004935;28;20037;-74
2023/12/31 01:15:34;;;;;;;10.13;4.03;;;;;;;4.13;100.00;100768.28;4992614;28;20036;-72
2023/12/31 01:18:00;;;;;;;8.77;3.58;;;;;;;4.15;100.00;100768.09;5040834;28;20036;-72
2023/12/31 01:20:25;;;;;;;10.02;3.35;;;;;;;4.17;100.00;100771.31;5018816;28;20033;-73
2023/12/31 01:22:51;;;;;;;11.95;4.63;;;;;;;4.15;100.00;100758.28;5034708;28;20123;-74
2023/12/31 01:25:17;;;;;;;11.32;4.00;;;;;;;4.17;100.00;100766.81;5015578;28;20032;-74
2023/12/31 01:27:42;;;;;;;6.88;4.15;;;;;;;4.17;100.00;100760.72;5023399;28;20033;-74
2023/12/31 01:30:10;;;;;;;9.75;3.85;;;;;;;4.18;100.00;100757.81;5007448;28;20646;-72
2023/12/31 01:32:36;;;;;;;8.50;3.38;;;;;;;4.18;100.00;100747.22;5018216;28;20095;-71
2023/12/31 01:35:03;;;;;;;10.30;4.35;;;;;;;4.18;100.00;100747.22;4988830;28;20131;-72
2023/12/31 01:37:29;;;;;;;8.63;3.63;;;;;;;4.20;100.00;100752.28;5017967;28;20037;-73
2023/12/31 01:39:55;;;;;;;9.07;3.08;;;;;;;4.18;100.00;100746.41;5027539;28;20865;-72
2023/12/31 01:42:21;;;;;;;9.52;3.50;;;;;;;4.21;100.00;100741.50;5025026;28;20028;-74
2023/12/31 01:44:47;;;;;;;8.07;3.95;;;;;;;4.23;100.00;100749.22;5022205;28;20041;-73
2023/12/31 01:47:13;;;;;;;14.23;3.25;;;;;;;4.25;100.00;100749.78;5024300;28;20055;-73
2023/12/31 01:49:39;;;;;;;9.85;3.20;;;;;;;4.25;100.00;100747.13;5026939;28;20044;-71
2023/12/31 01:52:05;;;;;;;11.20;3.55;;;;;;;4.25;100.00;100737.31;5019365;28;20041;-71
2023/12/31 01:54:31;;;;;;;7.35;3.10;;;;;;;4.26;100.00;100738.13;5034756;28;20508;-71
2023/12/31 01:56:57;;;;;;;7.93;3.50;;;;;;;4.27;100.00;100735.28;4991740;28;20041;-72
2023/12/31 01:59:23;;;;;;;7.80;3.08;;;;;;;4.29;100.00;100727.09;5021960;28;20060;-70
2023/12/31 02:01:50;;;;;;;;;;;;;;;4.30;100.00;100723.41;5018514;28;20041;-70
2023/12/31 02:04:19;;;;;;;8.55;3.45;;;;;;;4.31;100.00;100719.72;5002630;28;19916;-71
2023/12/31 02:06:45;;;;;;;6.55;3.40;;;;;;;4.33;100.00;100725.59;5008590;28;20067;-72
2023/12/31 02:09:11;;;;;;;9.05;2.95;;;;;;;4.33;100.00;100722.94;5021285;28;20119;-70
2023/12/31 02:11:37;;;;;;;9.95;3.55;;;;;;;4.35;100.00;100721.69;5017514;28;20422;-71
2023/12/31 02:14:03;;;;;;;;;;;;;;;4.37;100.00;100724.09;5026524;28;20036;-73
2023/12/31 02:16:29;;;;;;;9.32;3.13;;;;;;;4.37;100.00;100713.50;5023472;28;19923;-73
2023/12/31 02:18:54;;;;;;;8.52;3.00;;;;;;;4.39;100.00;100716.72;5020500;28;20087;-72
2023/12/31 02:21:20;;;;;;;6.68;2.60;;;;;;;4.42;100.00;100716.28;5005800;28;20033;-72
2023/12/31 02:23:46;;;;;;;8.30;3.20;;;;;;;4.44;100.00;100713.38;5023769;28;20064;-72
2023/12/31 02:26:12;;;;;;;11.35;2.97;;;;;;;4.45;100.00;100718.44;5015785;28;20135;-72
2023/12/31 02:28:39;;;;;;;6.70;2.55;;;;;;;4.47;100.00;100716.41;5024243;28;20166;-72
2023/12/31 02:31:05;;;;;;;9.18;3.10;;;;;;;4.50;100.00;100718.59;5047030;28;20413;-72
2023/12/31 02:33:32;;;;;;;5.38;2.40;;;;;;;4.52;100.00;100711.19;5026893;28;20048;-72
2023/12/31 02:35:58;;;;;;;9.15;3.15;;;;;;;4.54;100.00;100709.13;5040388;28;20086;-72
2023/12/31 02:38:23;;;;;;;8.15;2.55;;;;;;;4.56;100.00;100706.25;5022177;28;20033;-72
2023/12/31 02:40:49;;;;;;;7.45;2.97;;;;;;;4.58;100.00;100704.16;5028579;28;20056;-73
2023/12/31 02:43:15;;;;;;;9.40;2.35;;;;;;;4.58;100.00;100694.34;5024262;28;20033;-72
2023/12/31 02:45:41;;;;;;;8.13;2.65;;;;;;;4.60;100.00;100692.28;5007714;28;20048;-72
2023/12/31 02:48:07;;;;;;;7.43;2.53;;;;;;;4.60;100.00;100680.88;5025325;28;20037;-72
2023/12/31 02:50:33;;;;;;;6.32;2.20;;;;;;;4.62;100.00;100679.59;5020393;28;20041;-72
2023/12/31 02:52:59;;;;;;;11.00;2.80;;;;;;;4.64;100.00;100676.72;5024447;28;20028;-73
2023/12/31 02:55:24;;;;;;;5.75;2.00;;;;;;;4.65;100.00;100680.97;5025768;28;20055;-72
2023/12/31 02:57:50;;;;;;;5.22;2.50;;;;;;;4.66;100.00;100674.63;5039375;28;20041;-72
2023/12/31 03:00:16;;;;;;;8.05;2.63;;;;;;;4.69;100.00;100668.06;5009124;28;20068;-73
2023/12/31 03:02:42;;;;;;;6.55;2.20;;;;;;;4.71;100.00;100664.13;5007735;28;20068;-72
2023/12/31 03:05:08;;;;;;;5.43;1.92;;;;;;;4.74;100.00;100674.31;4994525;28;20037;-72
2023/12/31 03:07:35;;;;;;;8.18;2.38;;;;;;;4.75;100.00;100661.84;5014249;28;20040;-72
2023/12/31 03:10:01;;;;;;;8.32;1.95;;;;;;;4.76;100.00;100658.16;5020003;28;20689;-72
2023/12/31 03:12:26;;;;;;;6.57;2.03;;;;;;;4.76;100.00;100647.53;5027600;28;20037;-73
2023/12/31 03:14:55;;;;;;;7.00;2.72;;;;;;;4.78;100.00;100651.56;5045203;28;20033;-72
2023/12/31 03:17:21;;;;;;;4.70;1.90;;;;;;;4.79;100.00;100647.06;5008286;28;20037;-73
2023/12/31 03:19:46;;;;;;;4.80;2.22;;;;;;;4.79;100.00;100647.84;5046210;28;20043;-71
2023/12/31 03:22:12;;;;;;;8.57;2.20;;;;;;;4.79;100.00;100647.84;5023773;28;20075;-71
2023/12/31 03:24:38;;;;;;;4.78;1.98;;;;;;;4.81;100.00;100655.56;5011753;28;20504;-72
2023/12/31 03:27:03;;;;;;;6.00;2.10;;;;;;;4.82;100.00;100646.59;5040321;28;20041;-71
2023/12/31 03:29:29;;;;;;;6.88;2.28;;;;;;;4.82;100.00;100643.94;5005816;28;20111;-71
2023/12/31 03:31:55;;;;;;;4.93;2.20;;;;;;;4.82;100.00;100636.00;5043570;28;20148;-71
2023/12/31 03:34:22;;;;;;;7.10;2.20;;;;;;;4.84;100.00;100633.91;5011152;28;20049;-73
2023/12/31 03:36:48;;;;;;;6.53;2.30;;;;;;;4.85;100.00;100632.84;4996479;28;20103;-72
2023/12/31 03:39:15;;;;;;;6.35;2.10;;;;;;;4.84;100.00;100616.13;5041742;28;20025;-72
2023/12/31 03:41:42;;;;;;;6.57;2.20;;;;;;;4.87;100.00;100617.50;5027870;28;20090;-73
2023/12/31 03:44:09;;;;;;;4.18;1.80;;;;;;;4.87;100.00;100615.66;5012479;28;20138;-72
2023/12/31 03:46:35;;;;;;;4.97;2.08;;;;;;;4.89;100.00;100607.47;5024534;28;20371;-71
2023/12/31 03:49:02;;;;;;;4.40;2.35;;;;;;;4.89;100.00;100607.47;5028239;28;20036;-70
2023/12/31 03:51:28;;;;;;;5.57;2.03;;;;;;;4.89;100.00;100604.81;5046569;28;20036;-73
2023/12/31 03:53:53;;;;;;;7.13;2.15;;;;;;;4.89;100.00;100604.81;5010968;28;20029;-73
2023/12/31 03:56:20;;;;;;;6.78;1.85;;;;;;;4.89;100.00;100599.50;5021046;28;20113;-73
2023/12/31 03:58:45;;;;;;;4.60;2.20;;;;;;;4.90;100.00;100598.47;5022377;28;20812;-71
2023/12/31 04:01:11;;;;;;;6.95;2.20;;;;;;;4.89;100.00;100589.72;5043608;28;20033;-73
2023/12/31 04:03:39;;;;;;;7.22;2.40;;;;;;;4.90;100.00;100590.50;5038320;28;20037;-73
2023/12/31 04:06:07;;;;;;;4.82;1.83;;;;;;;4.91;100.00;100592.13;5040916;28;22108;-74
2023/12/31 04:08:33;;;;;;;7.43;1.98;;;;;;;4.89;100.00;100591.56;5025813;28;20080;-73
2023/12/31 04:10:58;;;;;;;5.25;2.17;;;;;;;4.89;100.00;100586.25;5009751;28;20558;-74
2023/12/31 04:13:24;;;;;;;4.57;1.70;;;;;;;4.91;100.00;100586.81;5025598;28;20139;-72
2023/12/31 04:15:50;;;;;;;7.25;2.22;;;;;;;4.91;100.00;100577.00;5006460;28;20043;-72
2023/12/31 04:18:16;;;;;;;6.07;1.80;;;;;;;4.92;100.00;100581.25;5008912;28;20064;-75
2023/12/31 04:20:43;;;;;;;5.20;1.83;;;;;;;4.92;100.00;100573.28;5006561;28;20120;-72
2023/12/31 04:23:09;;;;;;;5.00;1.83;;;;;;;4.93;100.00;100572.25;5008760;28;20090;-72
2023/12/31 04:25:34;;;;;;;4.22;1.90;;;;;;;4.93;100.00;100580.22;5042597;28;20037;-73
2023/12/31 04:28:00;;;;;;;5.47;2.35;;;;;;;4.94;100.00;100573.06;5042083;28;20429;-72
2023/12/31 04:30:26;;;;;;;4.95;1.60;;;;;;;4.95;100.00;100571.25;5037675;28;20112;-72
2023/12/31 04:32:52;;;;;;;5.50;1.90;;;;;;;4.92;100.00;100568.00;5028615;28;20056;-72
2023/12/31 04:35:17;;;;;;;6.78;2.20;;;;;;;4.95;100.00;100556.13;4989711;28;20037;-72
2023/12/31 04:37:43;;;;;;;7.78;2.00;;;;;;;4.95;100.00;100557.97;5040699;28;20037;-74
2023/12/31 04:40:10;;;;;;;4.40;2.00;;;;;;;4.91;100.00;100555.78;5022416;28;20614;-73
2023/12/31 04:42:35;;;;;;;4.78;1.80;;;;;;;4.91;100.00;100544.34;5023149;28;20037;-72
2023/12/31 04:45:06;;;;;;;7.63;2.53;;;;;;;4.90;100.00;100542.75;5009921;28;20247;-71
2023/12/31 04:47:34;;;;;;;8.18;2.10;;;;;;;4.90;100.00;100535.59;5019094;28;20040;-71
2023/12/31 04:50:00;;;;;;;7.53;2.10;;;;;;;4.88;100.00;100528.91;5021734;28;20140;-73
2023/12/31 04:52:26;;;;;;;4.75;1.73;;;;;;;4.89;100.00;100538.47;5023249;28;20112;-73
2023/12/31 04:54:51;;;;;;;5.32;2.30;;;;;;;4.87;100.00;100529.94;4990130;28;20041;-72
2023/12/31 04:57:16;;;;;;;5.32;1.73;;;;;;;4.87;100.00;100527.28;5021719;28;20040;-71
2023/12/31 04:59:42;;;;;;;6.55;2.17;;;;;;;4.85;100.00;100521.41;5040102;28;20094;-73
2023/12/31 05:02:08;;;;;;;12.57;2.53;;;;;;;4.86;100.00;100504.44;5032643;28;20135;-71
2023/12/31 05:04:34;;;;;;;5.15;1.85;;;;;;;4.85;100.00;100502.84;5022454;28;20032;-72
2023/12/31 05:07:00;;;;;;;6.75;2.33;;;;;;;4.84;100.00;100495.94;5036467;28;20522;-72
2023/12/31 05:09:26;;;;;;;10.60;2.45;;;;;;;4.83;100.00;100503.09;5007279;28;20036;-73
2023/12/31 05:11:51;;;;;;;5.15;1.88;;;;;;;4.85;100.00;100486.91;5023648;28;20029;-71
2023/12/31 05:14:17;;;;;;;8.02;1.88;;;;;;;4.85;100.00;100478.97;5042623;28;20040;-72
2023/12/31 05:16:43;;;;;;;6.10;1.95;;;;;;;4.86;100.00;100477.91;5041245;28;20064;-72
2023/12/31 05:19:08;;;;;;;6.57;2.13;;;;;;;4.86;100.00;100468.09;5025035;28;20029;-71
2023/12/31 05:21:34;;;;;;;7.10;1.92;;;;;;;4.87;100.00;100469.72;4994724;28;20044;-72
2023/12/31 05:24:00;;;;;;;5.47;2.25;;;;;;;4.88;100.00;100465.22;5027895;28;20063;-72
2023/12/31 05:26:25;;;;;;;7.68;1.90;;;;;;;4.87;100.00;100452.97;5041594;28;20025;-72
2023/12/31 05:28:52;;;;;;;6.28;2.33;;;;;;;4.89;100.00;100451.72;5023232;28;20032;-71
2023/12/31 05:31:18;;;;;;;3.65;1.83;;;;;;;4.89;100.00;100448.25;5038707;28;20025;-72
2023/12/31 05:33:44;;;;;;;9.68;2.00;;;;;;;4.90;100.00;100455.19;5025008;23;20827;-72
2023/12/31 05:36:11;;;;;;;4.80;1.85;;;;;;;4.92;100.00;100455.72;5033525;28;20048;-73
2023/12/31 05:38:37;;;;;;;6.43;2.05;;;;;;;4.92;100.00;100450.44;5036212;28;20047;-75
2023/12/31 05:41:02;;;;;;;8.15;2.08;;;;;;;4.92;100.00;100439.81;5012121;28;20414;-74
2023/12/31 05:43:28;;;;;;;8.20;2.00;;;;;;;4.92;100.00;100434.50;5033448;28;20033;-74
2023/12/31 05:45:54;;;;;;;3.08;1.63;;;;;;;4.93;100.00;100431.59;5030179;28;20494;-72
2023/12/31 05:48:20;;;;;;;6.82;2.10;;;;;;;4.95;100.00;100439.34;5011361;28;20056;-74
2023/12/31 05:50:46;;;;;;;11.80;2.30;;;;;;;4.97;100.00;100442.56;5027956;28;20037;-74
2023/12/31 05:53:13;;;;;;;6.38;1.70;;;;;;;4.99;100.00;100444.97;5030101;28;20037;-73
2023/12/31 05:55:38;;;;;;;8.32;2.38;;;;;;;5.00;100.00;100441.25;5034588;28;20058;-72
2023/12/31 05:58:04;;;;;;;5.22;2.10;;;;;;;5.00;100.00;100434.09;5027169;28;20041;-75
2023/12/31 06:00:30;;;;;;;6.03;2.13;;;;;;;4.99;100.00;100423.72;5028154;28;20029;-72
2023/12/31 06:02:56;;;;;;;4.55;2.03;;;;;;;4.99;100.00;100416.56;5017751;28;20033;-73
2023/12/31 06:05:22;;;;;;;6.57;2.00;;;;;;;5.01;100.00;100418.97;5035779;28;20490;-75
2023/12/31 06:07:47;;;;;;;4.07;1.83;;;;;;;5.01;100.00;100409.16;5029692;28;20040;-72
2023/12/31 06:10:13;;;;;;;4.85;2.10;;;;;;;5.01;100.00;100395.09;5034542;28;20564;-74
2023/12/31 06:12:39;;;;;;;5.18;1.92;;;;;;;5.00;100.00;100389.00;5022623;28;20057;-74
2023/12/31 06:15:09;;;;;;;6.22;2.10;;;;;;;5.00;100.00;100394.28;5037575;28;20114;-72
2023/12/31 06:17:36;;;;;;;5.68;1.70;;;;;;;4.98;100.00;100380.47;5034001;28;20083;-73
2023/12/31 06:20:04;;;;;;;4.72;2.10;;;;;;;4.95;100.00;100396.88;5024435;28;20474;-73
2023/12/31 06:22:31;;;;;;;6.25;1.92;;;;;;;4.93;100.00;100380.38;5023975;28;20582;-74
2023/12/31 06:24:57;;;;;;;6.95;2.30;;;;;;;4.92;100.00;100392.03;5043204;28;20041;-73
2023/12/31 06:27:23;;;;;;;6.18;1.70;;;;;;;4.89;100.00;100381.94;5030563;28;20037;-74
2023/12/31 06:29:50;;;;;;;5.95;1.63;;;;;;;4.88;100.00;100380.31;5006743;28;20042;-73
2023/12/31 06:32:20;;;;;;;7.82;2.03;;;;;;;4.88;100.00;100386.44;5031814;28;20033;-75
2023/12/31 06:34:46;;;;;;;6.68;2.13;;;;;;;4.89;100.00;100390.69;5036172;28;20487;-73
2023/12/31 06:37:12;;;;;;;;;;;;;;;4.89;100.00;100387.22;5037056;28;20033;-75
2023/12/31 06:39:41;;;;;;;5.05;1.80;;;;;;;4.89;100.00;100389.88;5039463;28;19924;-72
2023/12/31 06:42:07;;;;;;;5.03;1.67;;;;;;;4.89;100.00;100384.59;5040506;28;20040;-74
2023/12/31 06:44:33;;;;;;;6.47;1.73;;;;;;;4.87;100.00;100371.53;5040792;28;20410;-72
2023/12/31 06:46:58;;;;;;;3.55;1.85;;;;;;;4.87;100.00;100362.75;5035313;28;20033;-74
2023/12/31 06:49:24;;;;;;;7.07;1.98;;;;;;;4.86;100.00;100356.66;5038212;28;20037;-72
2023/12/31 06:51:50;;;;;;;5.55;2.10;;;;;;;4.88;100.00;100356.44;5035810;28;20076;-74
2023/12/31 06:54:16;;;;;;;5.50;1.70;;;;;;;4.87;100.00;100352.97;5038751;28;20037;-74
2023/12/31 06:56:42;;;;;;;4.07;1.77;;;;;;;4.87;100.00;100346.84;5042952;28;20075;-73
2023/12/31 06:59:08;;;;;;;4.72;1.88;;;;;;;4.87;100.00;100346.84;5023132;28;20040;-74
2023/12/31 07:01:34;;;;;;;4.78;1.90;;;;;;;4.85;100.00;100338.34;5041453;28;20032;-72
2023/12/31 07:04:00;;;;;;;4.68;1.80;;;;;;;4.84;100.00;100340.19;5003075;28;20090;-74
2023/12/31 07:06:26;;;;;;;6.07;2.05;;;;;;;4.83;100.00;100345.75;5038925;28;20498;-72
2023/12/31 07:08:52;;;;;;;3.10;1.30;;;;;;;4.82;100.00;100344.13;5039054;28;20037;-73
2023/12/31 07:11:18;;;;;;;4.47;1.75;;;;;;;4.79;100.00;100340.09;5049975;28;21252;-73
2023/12/31 07:13:44;;;;;;;2.90;1.85;;;;;;;4.78;100.00;100337.69;5039278;28;20057;-75
2023/12/31 07:16:10;;;;;;;8.18;2.53;;;;;;;4.75;100.00;100327.56;5029967;28;20036;-73
2023/12/31 07:18:36;;;;;;;6.15;1.83;;;;;;;4.72;100.00;100317.44;5034577;28;21060;-73
2023/12/31 07:21:03;;;;;;;5.07;2.03;;;;;;;4.71;100.00;100332.53;5014308;28;20637;-72
2023/12/31 07:23:28;;;;;;;6.40;1.90;;;;;;;4.70;100.00;100335.44;5034523;28;20028;-73
2023/12/31 07:25:54;;;;;;;3.72;1.95;;;;;;;4.66;100.00;100335.91;5035875;28;20782;-73
2023/12/31 07:28:20;;;;;;;5.05;2.30;;;;;;;4.63;100.00;100320.47;5032866;28;20426;-72
2023/12/31 07:30:46;;;;;;;10.75;2.40;;;;;;;4.62;100.00;100329.50;5040254;28;20395;-72
2023/12/31 07:33:12;;;;;;;5.28;2.25;;;;;;;4.60;100.00;100328.09;5024304;28;20661;-72
2023/12/31 07:35:37;;;;;;;5.45;1.63;;;;;;;4.56;100.00;100325.16;5024990;28;20090;-74
2023/12/31 07:38:04;;;;;;;7.55;2.28;;;;;;;4.53;100.00;100322.94;5023406;28;20037;-74
2023/12/31 07:40:30;;;;;;;5.63;1.80;;;;;;;4.50;100.00;100328.75;5041445;28;20063;-73
2023/12/31 07:42:56;;;;;;;4.93;1.98;;;;;;;4.45;100.00;100312.75;5035595;28;20125;-73
2023/12/31 07:45:22;;;;;;;7.03;1.83;;;;;;;4.45;100.00;100318.03;5023922;28;20133;-73
2023/12/31 07:47:48;;;;;;;5.53;2.03;;;;;;;4.41;100.00;100326.75;5039332;28;20812;-72
2023/12/31 07:50:15;;;;;;;;;;;;;;;4.39;100.00;100311.03;5036978;28;20029;-73
2023/12/31 07:52:40;;;;;;;6.25;1.98;;;;;;;4.38;100.00;100307.59;5017835;28;19955;-75
2023/12/31 07:55:10;;;;;;;5.93;1.90;;;;;;;4.35;100.00;100304.63;5033297;28;20203;-75
2023/12/31 07:57:36;;;;;;;3.78;1.70;;;;;;;4.33;100.00;100301.41;5032979;28;20056;-73
2023/12/31 08:00:04;;;;;;;;;;;;;;;4.35;100.00;100301.97;5032896;28;20033;-74
2023/12/31 08:02:38;;;;;;;4.07;2.33;;;;;;;4.31;100.00;100306.94;5041171;28;19913;-76
2023/12/31 08:05:03;;;;;;;8.13;2.25;;;;;;;4.32;100.00;100305.09;5041863;28;20436;-73
2023/12/31 08:07:29;;;;;;;5.25;2.05;;;;;;;4.30;100.00;100304.53;5029249;28;20061;-74
2023/12/31 08:09:56;;;;;;;4.43;1.95;;;;;;;4.29;100.00;100301.09;5028291;28;20025;-73
2023/12/31 08:12:24;;;;;;;7.35;2.33;;;;;;;4.30;100.00;100292.09;5017949;28;20772;-72
2023/12/31 08:14:51;;;;;;;4.15;2.10;;;;;;;4.30;100.00;100285.97;5023069;28;20043;-72
2023/12/31 08:17:17;;;;;;;4.72;2.55;;;;;;;4.31;100.00;100276.97;5038121;28;20067;-73
2023/12/31 08:19:43;;;;;;;7.72;2.00;;;;;;;4.29;100.00;100282.53;5013828;28;20506;-73
2023/12/31 08:22:09;;;;;;;5.45;2.40;;;;;;;4.29;100.00;100281.72;5014100;28;20067;-75
2023/12/31 08:24:35;;;;;;;5.45;2.00;;;;;;;4.28;100.00;100266.88;5036434;28;20037;-72
2023/12/31 08:27:01;;;;;;;4.22;2.00;;;;;;;4.28;100.00;100264.22;5033051;28;20121;-74
2023/12/31 08:29:27;;;;;;;6.32;2.42;;;;;;;4.28;100.00;100258.91;5033202;28;20163;-73
2023/12/31 08:31:54;;;;;;;10.57;2.28;;;;;;;4.27;100.00;100252.00;5002513;28;20054;-73
2023/12/31 08:34:19;;;;;;;6.70;2.00;;;;;;;4.28;100.00;100256.25;5018121;28;20041;-73
2023/12/31 08:36:45;;;;;;;6.80;2.10;;;;;;;4.30;100.00;100256.81;5030063;28;20029;-75
2023/12/31 08:39:11;;;;;;;6.28;2.45;;;;;;;4.32;100.00;100249.41;5040150;28;20029;-73
2023/12/31 08:41:37;;;;;;;6.10;1.90;;;;;;;4.32;100.00;100255.53;5030710;28;20033;-73
2023/12/31 08:44:03;;;;;;;4.85;1.85;;;;;;;4.32;100.00;100246.78;5022996;28;20053;-74
2023/12/31 08:46:29;;;;;;;5.38;2.40;;;;;;;4.33;100.00;100235.91;5024438;28;20041;-73
2023/12/31 08:48:56;;;;;;;4.25;2.17;;;;;;;4.35;100.00;100244.47;5038148;28;20048;-72
2023/12/31 08:51:22;;;;;;;9.00;2.50;;;;;;;4.37;100.00;100245.00;5013572;28;20037;-72
2023/12/31 08:53:48;;;;;;;3.75;2.05;;;;;;;4.40;100.00;100241.06;5024438;28;20065;-72
2023/12/31 08:56:13;;;;;;;6.47;2.25;;;;;;;4.38;100.00;100224.59;5034225;28;20071;-75
2023/12/31 08:58:40;;;;;;;5.97;2.60;;;;;;;4.42;100.00;100214.34;5019013;28;20092;-76
2023/12/31 09:01:08;;;;;;;4.63;2.13;;;;;;;4.44;100.00;100214.88;5044518;28;20116;-74
2023/12/31 09:03:34;;;;;;;6.18;2.10;;;;;;;4.45;100.00;100216.50;4999902;28;20036;-75
2023/12/31 09:06:01;;;;;;;4.53;2.05;;;;;;;4.47;100.00;100211.75;5022927;28;20040;-73
2023/12/31 09:08:26;;;;;;;6.70;2.58;;;;;;;4.49;100.00;100210.47;5027520;28;20041;-73
2023/12/31 09:10:54;;;;;;;4.40;2.10;;;;;;;4.50;100.00;100204.13;5034899;28;20037;-73
2023/12/31 09:13:22;;;;;;;6.38;2.22;;;;;;;4.54;100.00;100205.25;5030885;28;20047;-73
2023/12/31 09:15:48;;;;;;;7.32;2.13;;;;;;;4.55;100.00;100201.53;5038795;28;20028;-74
2023/12/31 09:18:16;;;;;;;6.05;2.80;;;;;;;4.59;100.00;100201.84;5038428;28;20507;-73
2023/12/31 09:20:42;;;;;;;6.85;2.33;;;;;;;4.62;100.00;100204.03;5038379;28;20060;-73
2023/12/31 09:23:08;;;;;;;3.47;2.17;;;;;;;4.64;100.00;100200.09;5020792;28;20060;-74
2023/12/31 09:25:35;;;;;;;6.18;2.13;;;;;;;4.66;100.00;100203.28;5029216;28;20479;-73
2023/12/31 09:28:00;;;;;;;5.55;2.35;;;;;;;4.70;100.00;100192.19;5018943;28;20036;-74
2023/12/31 09:30:27;;;;;;;4.60;2.03;;;;;;;4.72;100.00;100184.78;5037032;28;20065;-73
2023/12/31 09:32:53;;;;;;;6.13;2.30;;;;;;;4.74;100.00;100182.69;5024187;28;20207;-74
2023/12/31 09:35:18;;;;;;;3.97;2.40;;;;;;;4.76;100.00;100176.13;4998093;28;20033;-74
2023/12/31 09:37:43;;;;;;;5.65;2.13;;;;;;;4.80;100.00;100176.41;5011705;28;20135;-74
2023/12/31 09:40:10;;;;;;;5.38;2.20;;;;;;;4.85;100.00;100174.63;5028229;28;20633;-74
2023/12/31 09:42:46;;;;;;;4.38;1.92;;;;;;;4.89;100.00;100172.31;5044063;28;20947;-74
2023/12/31 09:45:14;;;;;;;4.22;2.20;;;;;;;4.90;100.00;100163.28;5036012;28;20067;-74
2023/12/31 09:47:40;;;;;;;5.38;2.10;;;;;;;4.93;100.00;100162.78;5020972;28;20041;-74
2023/12/31 09:50:07;;;;;;;6.28;2.17;;;;;;;4.96;100.00;100159.66;5030463;28;20332;-74
2023/12/31 09:52:34;;;;;;;4.70;2.22;;;;;;;4.99;100.00;100158.34;5048734;28;20058;-75
2023/12/31 09:55:00;;;;;;;;;;;;;;;5.03;100.00;100146.22;5033902;28;20044;-74
2023/12/31 09:57:28;;;;;;;7.95;2.40;;;;;;;5.04;100.00;100145.94;5034246;28;20007;-75
2023/12/31 09:59:55;;;;;;;4.85;1.85;;;;;;;5.07;100.00;100142.00;5034341;28;20022;-75
2023/12/31 10:02:24;;;;;;;5.32;2.45;;;;;;;5.09;100.00;100124.00;5025758;28;20129;-75
2023/12/31 10:04:51;;;;;;;2.95;1.63;;;;;;;5.11;100.00;100128.00;5034118;28;20041;-74
2023/12/31 10:07:20;;;;;;;4.30;2.10;;;;;;;5.14;100.00;100119.50;5041376;28;20033;-74
2023/12/31 10:09:46;;;;;;;6.45;2.30;;;;;;;5.17;100.00;100108.41;5035739;28;20124;-74
2023/12/31 10:12:12;;;;;;;4.20;1.85;;;;;;;5.19;100.00;100106.31;5026695;28;20065;-74
2023/12/31 10:14:38;;;;;;;4.40;2.05;;;;;;;5.23;100.00;100105.81;5039849;28;20155;-74
2023/12/31 10:17:09;;;;;;;6.10;2.00;;;;;;;5.26;100.00;100102.66;5043794;28;20494;-73
2023/12/31 10:19:35;;;;;;;4.40;2.05;;;;;;;5.29;100.00;100097.66;5031891;28;20040;-75
2023/12/31 10:22:05;;;;;;;4.97;1.77;;;;;;;5.31;100.00;100108.03;5035108;28;20037;-75
2023/12/31 10:24:31;;;;;;;3.80;1.90;;;;;;;5.33;100.00;100084.69;5033386;28;20040;-74
2023/12/31 10:27:00;;;;;;;3.22;1.45;;;;;;;5.34;100.00;100092.38;5037684;28;20061;-72
2023/12/31 10:29:27;;;;;;;3.05;1.90;;;;;;;5.37;100.00;100083.94;5023234;28;20040;-74
2023/12/31 10:31:56;;;;;;;5.70;1.85;;;;;;;5.38;100.00;100079.41;5006253;28;20034;-74
2023/12/31 10:34:21;;;;;;;3.45;1.70;;;;;;;5.39;100.00;100081.00;5044089;28;20335;-74
2023/12/31 10:36:47;;;;;;;3.30;1.63;;;;;;;5.40;100.00;100078.09;5023888;28;20029;-74
2023/12/31 10:39:29;;;;;;;6.68;1.90;;;;;;;5.43;100.00;100064.34;5019936;28;20045;-74
2023/12/31 10:41:59;;;;;;;4.15;1.60;;;;;;;5.46;100.00;100071.00;5038067;28;20061;-72
2023/12/31 10:44:26;;;;;;;5.38;2.00;;;;;;;5.46;100.00;100058.50;5033782;28;20045;-73
2023/12/31 10:46:56;;;;;;;4.63;2.00;;;;;;;5.47;100.00;100032.75;5007493;28;20060;-73
2023/12/31 10:49:22;;;;;;;4.95;2.00;;;;;;;5.45;100.00;100045.50;5036998;28;20107;-75
2023/12/31 10:51:52;;;;;;;5.80;1.90;;;;;;;5.45;100.00;100046.28;5041271;28;20025;-73
2023/12/31 10:54:31;;;;;;;3.63;1.90;;;;;;;5.46;100.00;100031.16;5033987;28;20080;-74
2023/12/31 10:56:58;;;;;;;;;;;;;;;5.43;100.00;100024.50;5010081;28;20044;-75
2023/12/31 10:59:30;;;;;;;4.20;2.08;;;;;;;5.43;100.00;100015.75;5031107;28;19912;-75
2023/12/31 11:01:56;;;;;;;4.03;1.65;;;;;;;5.39;100.00;100010.13;5022616;28;20494;-77
2023/12/31 11:04:24;;;;;;;;;;;;;;;5.39;100.00;100006.66;5035525;28;20065;-76
2023/12/31 11:06:50;;;;;;;7.43;1.95;;;;;;;5.39;100.00;100001.34;5024309;28;19967;-74
2023/12/31 11:09:17;;;;;;;4.53;1.90;;;;;;;5.41;100.00;100001.91;5025449;28;20453;-73
2023/12/31 11:11:44;;;;;;;4.32;2.10;;;;;;;5.44;100.00;99985.47;5025931;28;20037;-78
2023/12/31 11:14:13;;;;;;;5.35;1.83;;;;;;;5.45;100.00;99971.13;5035378;28;20048;-76
2023/12/31 11:17:24;;;;;;;5.32;1.60;;;;;;;5.49;100.00;99972.25;5036868;28;20056;-77
2023/12/31 11:20:12;;;;;;;4.18;1.70;;;;;;;5.53;100.00;99977.81;5050230;28;20037;-74
2023/12/31 11:22:55;;;;;;;4.00;1.58;;;;;;;5.57;100.00;99982.38;5037191;28;20041;-73